createdAt,value
2023-04-02T00:01:01.363Z,100147.63
2023-04-02T00:03:53.405Z,100159.03
2023-04-02T00:06:44.892Z,100165.28
2023-04-02T00:09:33.091Z,100168.25
2023-04-02T00:12:19.561Z,100171.06
2023-04-02T00:15:04.585Z,100178.50
2023-04-02T00:17:49.495Z,100186.25
2023-04-02T00:20:40.660Z,100185.25
2023-04-02T00:23:26.449Z,100184.28
2023-04-02T00:26:21.730Z,100197.47
2023-04-02T00:29:07.485Z,100198.97
2023-04-02T00:31:54.266Z,100212.84
2023-04-02T00:34:39.580Z,100209.22
2023-04-02T00:37:38.498Z,100218.63
2023-04-02T00:40:29.206Z,100222.25
2023-04-02T00:43:18.739Z,100228.34
2023-04-02T00:46:10.795Z,100234.63
2023-04-02T00:49:14.739Z,100237.75
2023-04-02T00:52:04.339Z,100244.84
2023-04-02T00:55:00.900Z,100246.03
2023-04-02T00:57:46.445Z,100249.81
2023-04-02T01:00:37.392Z,100256.75
2023-04-02T01:03:28.918Z,100260.56
2023-04-02T01:06:18.692Z,100259.38
2023-04-02T01:09:17.047Z,100269.81
2023-04-02T01:12:29.604Z,100272.75
2023-04-02T01:15:21.512Z,100278.75
2023-04-02T01:18:33.332Z,100277.06
2023-04-02T01:21:34.507Z,100281.75
2023-04-02T01:24:21.198Z,100290.84
2023-04-02T01:27:14.206Z,100293.66
2023-04-02T01:30:01.519Z,100299.78
2023-04-02T01:32:47.264Z,100305.69
2023-04-02T01:35:38.764Z,100308.69
2023-04-02T01:38:31.941Z,100315.13
2023-04-02T01:41:26.940Z,100317.03
2023-04-02T01:44:17.748Z,100319.56
2023-04-02T01:47:05.421Z,100319.00
2023-04-02T01:49:56.711Z,100330.56
2023-04-02T01:52:44.996Z,100338.78
2023-04-02T01:55:32.664Z,100342.19
2023-04-02T01:58:27.197Z,100349.19
2023-04-02T02:01:16.364Z,100353.31
2023-04-02T02:04:01.926Z,100357.94
2023-04-02T02:06:47.182Z,100369.28
2023-04-02T02:09:35.360Z,100368.00
2023-04-02T02:12:20.195Z,100377.91
2023-04-02T02:15:14.497Z,100386.59
2023-04-02T02:18:04.407Z,100386.88
2023-04-02T02:20:51.590Z,100392.31
2023-04-02T02:23:36.909Z,100411.91
2023-04-02T02:26:26.296Z,100407.00
2023-04-02T02:29:16.967Z,100417.25
2023-04-02T02:32:03.991Z,100420.03
2023-04-02T02:34:56.313Z,100424.84
2023-04-02T02:37:46.327Z,100435.19
2023-04-02T02:40:38.669Z,100434.84
2023-04-02T02:43:24.489Z,100432.75
2023-04-02T02:46:16.512Z,100446.56
2023-04-02T02:49:04.523Z,100442.94
2023-04-02T02:52:06.434Z,100454.47
2023-04-02T02:55:00.990Z,100457.97
2023-04-02T02:57:52.245Z,100469.25
2023-04-02T03:00:39.038Z,100467.28
2023-04-02T03:03:28.827Z,100474.84
2023-04-02T03:06:20.471Z,100474.22
2023-04-02T03:09:28.776Z,100477.94
2023-04-02T03:12:36.465Z,100482.91
2023-04-02T03:15:39.837Z,100493.72
2023-04-02T03:18:35.165Z,100490.25
2023-04-02T03:21:51.644Z,100502.84
2023-04-02T03:24:55.848Z,100507.88
2023-04-02T03:27:46.463Z,100507.91
2023-04-02T03:30:41.318Z,100511.00
2023-04-02T03:33:35.707Z,100521.91
2023-04-02T03:36:32.778Z,100532.94
2023-04-02T03:39:28.498Z,100533.59
2023-04-02T03:42:20.442Z,100541.69
2023-04-02T03:45:15.675Z,100539.06
2023-04-02T03:48:18.365Z,100539.75
2023-04-02T03:51:12.145Z,100547.81
2023-04-02T03:53:57.196Z,100552.41
2023-04-02T03:56:47.138Z,100555.72
2023-04-02T03:59:42.589Z,100570.69
2023-04-02T04:02:39.727Z,100580.72
2023-04-02T04:05:29.688Z,100586.28
2023-04-02T04:08:32.718Z,100585.44
2023-04-02T04:11:22.646Z,100584.75
2023-04-02T04:14:16.474Z,100598.22
2023-04-02T04:17:09.229Z,100604.19
2023-04-02T04:20:08.062Z,100606.00
2023-04-02T04:22:55.824Z,100620.72
2023-04-02T04:25:41.233Z,100614.88
2023-04-02T04:28:49.825Z,100633.31
2023-04-02T04:31:38.864Z,100634.56
2023-04-02T04:34:56.938Z,100635.41
2023-04-02T04:37:49.403Z,100643.47
2023-04-02T04:40:41.713Z,100652.88
2023-04-02T04:43:52.635Z,100667.41
2023-04-02T04:46:46.709Z,100670.34
2023-04-02T04:49:40.271Z,100679.22
2023-04-02T04:52:34.220Z,100683.38
2023-04-02T04:55:27.670Z,100684.13
2023-04-02T04:58:29.751Z,100701.09
2023-04-02T05:01:46.297Z,100707.00
2023-04-02T05:04:36.135Z,100709.34
2023-04-02T05:07:43.074Z,100723.50
2023-04-02T05:10:43.922Z,100730.72
2023-04-02T05:13:40.251Z,100736.09
2023-04-02T05:16:43.161Z,100739.81
2023-04-02T05:19:41.800Z,100747.88
2023-04-02T05:22:48.446Z,100747.81
2023-04-02T05:25:33.848Z,100759.63
2023-04-02T05:28:26.450Z,100762.16
2023-04-02T05:31:26.129Z,100764.88
2023-04-02T05:34:12.343Z,100761.72
2023-04-02T05:36:58.319Z,100767.69
2023-04-02T05:39:45.618Z,100778.03
2023-04-02T05:42:35.191Z,100778.31
2023-04-02T05:45:32.241Z,100790.19
2023-04-02T05:48:20.894Z,100806.00
2023-04-02T05:51:12.003Z,100807.69
2023-04-02T05:54:00.106Z,100817.31
2023-04-02T05:56:48.492Z,100821.63
2023-04-02T05:59:46.009Z,100825.47
2023-04-02T06:02:45.106Z,100838.06
2023-04-02T06:05:36.828Z,100842.09
2023-04-02T06:08:29.699Z,100855.44
2023-04-02T06:11:28.558Z,100862.69
2023-04-02T06:14:16.135Z,100869.03
2023-04-02T06:17:01.071Z,100882.91
2023-04-02T06:19:47.864Z,100894.78
2023-04-02T06:22:37.758Z,100888.63
2023-04-02T06:25:42.822Z,100896.75
2023-04-02T06:28:36.055Z,100901.88
2023-04-02T06:31:36.123Z,100907.66
2023-04-02T06:34:24.289Z,100924.53
2023-04-02T06:37:19.432Z,100929.47
2023-04-02T06:40:17.219Z,100938.47
2023-04-02T06:43:13.127Z,100943.72
2023-04-02T06:46:01.128Z,100949.69
2023-04-02T06:48:50.450Z,100965.53
2023-04-02T06:51:37.115Z,100964.31
2023-04-02T06:54:22.022Z,100964.50
2023-04-02T06:57:08.163Z,100971.88
2023-04-02T06:59:53.439Z,100972.44
2023-04-02T07:02:39.681Z,100985.22
2023-04-02T07:05:24.484Z,100989.66
2023-04-02T07:08:09.652Z,100998.84
2023-04-02T07:10:56.092Z,101004.56
2023-04-02T07:13:41.180Z,101008.41
2023-04-02T07:16:29.204Z,101017.81
2023-04-02T07:19:22.783Z,101019.44
2023-04-02T07:22:08.069Z,101028.47
2023-04-02T07:24:53.377Z,101032.22
2023-04-02T07:27:38.480Z,101038.59
2023-04-02T07:30:23.713Z,101041.63
2023-04-02T07:33:13.860Z,101037.13
2023-04-02T07:35:58.959Z,101059.84
2023-04-02T07:38:44.031Z,101057.06
2023-04-02T07:41:29.205Z,101063.84
2023-04-02T07:44:14.873Z,101077.50
2023-04-02T07:46:59.775Z,101079.19
2023-04-02T07:49:44.745Z,101089.09
2023-04-02T07:52:29.508Z,101095.66
2023-04-02T07:55:16.045Z,101100.69
2023-04-02T07:58:01.726Z,101099.97
2023-04-02T08:00:46.641Z,101110.50
2023-04-02T08:03:32.755Z,101108.22
2023-04-02T08:06:18.138Z,101115.84
2023-04-02T08:09:03.634Z,101120.16
2023-04-02T08:11:48.728Z,101126.78
2023-04-02T08:14:33.624Z,101129.75
2023-04-02T08:17:18.731Z,101131.97
2023-04-02T08:20:05.442Z,101139.91
2023-04-02T08:22:50.529Z,101145.16
2023-04-02T08:25:35.748Z,101155.88
2023-04-02T08:28:21.185Z,101159.50
2023-04-02T08:31:08.857Z,101172.38
2023-04-02T08:33:54.078Z,101176.34
2023-04-02T08:36:43.229Z,101187.03
2023-04-02T08:39:32.905Z,101181.84
2023-04-02T08:43:03.176Z,101190.69
2023-04-02T08:46:14.445Z,101203.75
2023-04-02T08:49:03.576Z,101201.38
2023-04-02T08:51:49.045Z,101212.59
2023-04-02T08:54:39.156Z,101214.19
2023-04-02T08:57:33.855Z,101209.97
2023-04-02T09:00:18.622Z,101213.38
2023-04-02T09:03:13.358Z,101223.09
2023-04-02T09:05:59.589Z,101225.06
2023-04-02T09:08:47.673Z,101225.25
2023-04-02T09:11:47.333Z,101225.91
2023-04-02T09:14:45.116Z,101237.06
2023-04-02T09:17:36.943Z,101243.84
2023-04-02T09:20:29.003Z,101253.88
2023-04-02T09:23:21.413Z,101263.56
2023-04-02T09:26:21.932Z,101255.06
2023-04-02T09:29:13.195Z,101276.94
2023-04-02T09:32:08.525Z,101283.16
2023-04-02T09:35:26.651Z,101289.50
2023-04-02T09:38:32.721Z,101299.78
2023-04-02T09:41:21.070Z,101300.44
2023-04-02T09:44:32.347Z,101299.94
2023-04-02T09:47:26.202Z,101306.06
2023-04-02T09:50:29.808Z,101310.19
2023-04-02T09:53:35.419Z,101320.13
2023-04-02T09:56:25.514Z,101317.75
2023-04-02T09:59:13.256Z,101319.22
2023-04-02T10:02:01.757Z,101332.94
2023-04-02T10:04:49.349Z,101333.66
2023-04-02T10:07:45.830Z,101343.34
2023-04-02T10:10:44.850Z,101349.94
2023-04-02T10:13:41.174Z,101347.44
2023-04-02T10:16:33.078Z,101342.34
2023-04-02T10:19:28.276Z,101355.66
2023-04-02T10:22:16.464Z,101369.75
2023-04-02T10:25:01.611Z,101375.97
2023-04-02T10:28:34.535Z,101375.69
2023-04-02T10:31:35.588Z,101372.59
2023-04-02T10:34:33.945Z,101379.00
2023-04-02T10:37:50.047Z,101393.84
2023-04-02T10:40:39.782Z,101387.16
2023-04-02T10:43:37.068Z,101395.66
2023-04-02T10:46:48.355Z,101402.03
2023-04-02T10:49:44.501Z,101401.19
2023-04-02T10:52:34.310Z,101409.59
2023-04-02T10:55:25.345Z,101418.84
2023-04-02T10:58:23.478Z,101418.88
2023-04-02T11:01:17.074Z,101422.16
2023-04-02T11:04:08.060Z,101424.75
2023-04-02T11:07:07.049Z,101429.72
2023-04-02T11:09:58.630Z,101438.69
2023-04-02T11:12:50.448Z,101440.66
2023-04-02T11:15:37.393Z,101439.53
2023-04-02T11:18:29.523Z,101441.25
2023-04-02T11:21:29.770Z,101452.28
2023-04-02T11:24:32.759Z,101446.59
2023-04-02T11:27:24.272Z,101452.28
2023-04-02T11:30:26.980Z,101461.72
2023-04-02T11:36:55.325Z,101466.88
2023-04-02T11:39:53.219Z,101470.47
2023-04-02T11:42:40.402Z,101470.25
2023-04-02T11:45:28.412Z,101465.84
2023-04-02T11:48:13.238Z,101474.59
2023-04-02T11:50:58.556Z,101463.22
2023-04-02T11:53:43.725Z,101473.53
2023-04-02T11:56:43.011Z,101479.47
2023-04-02T11:59:40.152Z,101484.28
2023-04-02T12:02:52.017Z,101475.78
2023-04-02T12:05:43.036Z,101483.59
2023-04-02T12:08:57.092Z,101483.72
2023-04-02T12:11:43.524Z,101490.53
2023-04-02T12:14:43.003Z,101488.63
2023-04-02T12:17:37.096Z,101495.56
2023-04-02T12:20:30.393Z,101505.41
2023-04-02T12:23:19.949Z,101507.66
2023-04-02T12:26:08.281Z,101521.47
2023-04-02T12:28:53.282Z,101522.66
2023-04-02T12:31:43.330Z,101520.97
2023-04-02T12:34:30.023Z,101522.63
2023-04-02T12:37:29.749Z,101526.81
2023-04-02T12:40:18.618Z,101527.06
2023-04-02T12:43:03.654Z,101528.06
2023-04-02T12:45:52.896Z,101526.75
2023-04-02T12:48:38.240Z,101534.88
2023-04-02T12:51:23.414Z,101544.97
2023-04-02T12:54:17.220Z,101544.81
2023-04-02T12:57:27.057Z,101553.56
2023-04-02T13:00:21.124Z,101548.78
2023-04-02T13:03:05.991Z,101556.63
2023-04-02T13:05:55.014Z,101560.81
2023-04-02T13:08:43.304Z,101549.31
2023-04-02T13:11:54.566Z,101560.47
2023-04-02T13:14:39.605Z,101559.25
2023-04-02T13:17:40.697Z,101570.09
2023-04-02T13:20:32.151Z,101568.63
2023-04-02T13:23:29.479Z,101578.16
2023-04-02T13:26:24.849Z,101574.94
2023-04-02T13:29:28.226Z,101586.59
2023-04-02T13:32:13.428Z,101583.72
2023-04-02T13:34:58.347Z,101584.28
2023-04-02T13:37:43.664Z,101581.69
2023-04-02T13:40:28.707Z,101591.06
2023-04-02T13:43:20.514Z,101600.25
2023-04-02T13:46:06.976Z,101603.31
2023-04-02T13:48:54.333Z,101610.19
2023-04-02T13:51:44.364Z,101615.34
2023-04-02T13:54:38.745Z,101602.09
2023-04-02T13:57:23.648Z,101611.28
2023-04-02T14:00:10.228Z,101613.47
2023-04-02T14:03:04.300Z,101617.66
2023-04-02T14:06:08.240Z,101618.28
2023-04-02T14:09:04.155Z,101621.75
2023-04-02T14:12:13.310Z,101624.34
2023-04-02T14:15:20.366Z,101638.63
2023-04-02T14:18:36.542Z,101634.66
2023-04-02T14:21:51.668Z,101638.19
2023-04-02T14:24:39.290Z,101644.41
2023-04-02T14:27:56.429Z,101636.66
2023-04-02T14:30:58.830Z,101658.56
2023-04-02T14:34:08.521Z,101656.16
2023-04-02T14:37:13.798Z,101660.22
2023-04-02T14:40:27.069Z,101673.41
2023-04-02T14:43:26.097Z,101664.16
2023-04-02T14:46:11.493Z,101675.19
2023-04-02T14:49:03.811Z,101671.88
2023-04-02T14:51:53.630Z,101675.78
2023-04-02T14:54:55.201Z,101669.69
2023-04-02T14:57:51.222Z,101676.25
2023-04-02T15:00:50.553Z,101683.16
2023-04-02T15:03:44.028Z,101692.75
2023-04-02T15:06:52.879Z,101699.59
2023-04-02T15:09:44.706Z,101692.56
2023-04-02T15:12:35.815Z,101690.94
2023-04-02T15:15:42.841Z,101707.78
2023-04-02T15:18:27.856Z,101713.28
2023-04-02T15:21:29.399Z,101711.03
2023-04-02T15:24:17.136Z,101711.38
2023-04-02T15:27:24.564Z,101713.38
2023-04-02T15:30:20.067Z,101724.03
2023-04-02T15:33:32.310Z,101716.22
2023-04-02T15:36:26.564Z,101730.44
2023-04-02T15:39:35.840Z,101733.44
2023-04-02T15:42:32.946Z,101730.16
2023-04-02T15:45:20.989Z,101738.50
2023-04-02T15:48:34.437Z,101741.25
2023-04-02T15:51:31.762Z,101746.94
2023-04-02T15:54:37.834Z,101747.59
2023-04-02T15:57:44.795Z,101759.47
2023-04-02T16:00:31.803Z,101770.22
2023-04-02T16:03:43.081Z,101768.59
2023-04-02T16:06:56.423Z,101777.19
2023-04-02T16:09:52.642Z,101780.41
2023-04-02T16:12:40.846Z,101781.84
2023-04-02T16:15:40.061Z,101795.72
2023-04-02T16:18:51.175Z,101797.28
2023-04-02T16:21:50.372Z,101802.03
2023-04-02T16:24:35.379Z,101814.75
2023-04-02T16:27:33.111Z,101815.81
2023-04-02T16:30:31.449Z,101823.81
2023-04-02T16:33:28.120Z,101819.41
2023-04-02T16:36:37.776Z,101826.59
2023-04-02T16:39:51.234Z,101830.47
2023-04-02T16:43:05.163Z,101834.88
2023-04-02T16:46:05.495Z,101840.69
2023-04-02T16:48:58.393Z,101846.25
2023-04-02T16:52:19.833Z,101846.56
2023-04-02T16:55:23.325Z,101859.31
2023-04-02T16:58:22.971Z,101858.56
2023-04-02T17:01:20.846Z,101867.72
2023-04-02T17:04:14.856Z,101862.69
2023-04-02T17:07:14.986Z,101875.50
2023-04-02T17:10:26.710Z,101889.19
2023-04-02T17:13:17.557Z,101880.03
2023-04-02T17:16:08.519Z,101883.84
2023-04-02T17:18:57.877Z,101888.13
2023-04-02T17:21:52.743Z,101892.16
2023-04-02T17:24:45.580Z,101900.38
2023-04-02T17:27:43.282Z,101901.50
2023-04-02T17:30:43.096Z,101908.47
2023-04-02T17:33:28.426Z,101915.84
2023-04-02T17:36:25.978Z,101914.56
2023-04-02T17:39:20.136Z,101926.34
2023-04-02T17:42:15.678Z,101933.41
2023-04-02T17:45:14.784Z,101943.19
2023-04-02T17:48:17.041Z,101941.50
2023-04-02T17:51:34.037Z,101939.38
2023-04-02T17:54:30.671Z,101946.88
2023-04-02T17:57:34.354Z,101944.56
2023-04-02T18:00:36.232Z,101951.81
2023-04-02T18:03:38.422Z,101957.81
2023-04-02T18:06:43.318Z,101964.84
2023-04-02T18:09:50.112Z,101969.31
2023-04-02T18:12:56.997Z,101972.94
2023-04-02T18:16:01.894Z,101972.75
2023-04-02T18:19:05.791Z,101986.94
2023-04-02T18:22:12.482Z,101985.81
2023-04-02T18:25:19.765Z,101981.06
2023-04-02T18:28:20.830Z,101988.97
2023-04-02T18:31:26.899Z,101990.34
2023-04-02T18:34:29.686Z,101994.84
2023-04-02T18:37:38.603Z,102000.03
2023-04-02T18:40:49.534Z,101998.63
2023-04-02T18:43:43.690Z,102002.75
2023-04-02T18:46:50.264Z,102009.03
2023-04-02T18:49:39.230Z,102006.34
2023-04-02T18:52:24.798Z,102013.66
2023-04-02T18:55:33.061Z,102011.25
2023-04-02T18:58:26.670Z,102024.19
2023-04-02T19:01:22.271Z,102035.97
2023-04-02T19:04:17.609Z,102034.94
2023-04-02T19:07:21.323Z,102041.00
2023-04-02T19:10:21.366Z,102055.56
2023-04-02T19:13:18.074Z,102053.38
2023-04-02T19:16:36.781Z,102048.31
2023-04-02T19:19:27.833Z,102060.34
2023-04-02T19:22:23.376Z,102056.03
2023-04-02T19:25:41.488Z,102065.03
2023-04-02T19:28:37.925Z,102066.94
2023-04-02T19:31:35.324Z,102075.50
2023-04-02T19:34:46.075Z,102078.31
2023-04-02T19:37:42.720Z,102087.03
2023-04-02T19:40:42.516Z,102090.91
2023-04-02T19:43:27.428Z,102095.50
2023-04-02T19:46:12.289Z,102092.25
2023-04-02T19:49:03.466Z,102095.69
2023-04-02T19:51:51.801Z,102098.72
2023-04-02T19:54:38.364Z,102100.22
2023-04-02T19:57:23.699Z,102104.38
2023-04-02T20:00:13.348Z,102101.81
2023-04-02T20:02:58.509Z,102105.47
2023-04-02T20:05:43.855Z,102102.41
2023-04-02T20:08:29.118Z,102110.19
2023-04-02T20:11:14.441Z,102116.66
2023-04-02T20:13:59.166Z,102116.59
2023-04-02T20:16:45.706Z,102128.03
2023-04-02T20:19:30.734Z,102124.34
2023-04-02T20:22:15.925Z,102129.97
2023-04-02T20:25:01.222Z,102136.28
2023-04-02T20:27:46.520Z,102137.97
2023-04-02T20:30:32.440Z,102140.59
2023-04-02T20:33:19.356Z,102149.25
2023-04-02T20:36:10.636Z,102146.03
2023-04-02T20:38:55.713Z,102154.84
2023-04-02T20:41:40.739Z,102160.03
2023-04-02T20:44:26.802Z,102164.63
2023-04-02T20:47:12.097Z,102158.53
2023-04-02T20:49:56.880Z,102164.81
2023-04-02T20:52:41.672Z,102164.81
2023-04-02T20:55:26.808Z,102169.31
2023-04-02T20:58:14.139Z,102172.88
2023-04-02T21:01:09.857Z,102172.78
2023-04-02T21:04:00.483Z,102174.28
2023-04-02T21:06:45.215Z,102186.69
2023-04-02T21:09:30.544Z,102175.44
2023-04-02T21:12:15.856Z,102174.53
2023-04-02T21:15:02.691Z,102183.63
2023-04-02T21:17:48.107Z,102179.41
2023-04-02T21:20:32.779Z,102184.00
2023-04-02T21:23:17.771Z,102187.75
2023-04-02T21:26:06.102Z,102190.47
2023-04-02T21:28:51.177Z,102189.63
2023-04-02T21:31:37.907Z,102188.19
2023-04-02T21:34:23.042Z,102182.53
2023-04-02T21:37:07.883Z,102183.72
2023-04-02T21:39:53.162Z,102186.53
2023-04-02T21:42:38.310Z,102182.13
2023-04-02T21:45:23.121Z,102179.75
2023-04-02T21:48:07.890Z,102190.53
2023-04-02T21:50:53.024Z,102193.66
2023-04-02T21:53:38.630Z,102185.19
2023-04-02T21:56:27.983Z,102193.94
2023-04-02T21:59:15.158Z,102194.75
2023-04-02T22:02:00.418Z,102201.56
2023-04-02T22:04:45.161Z,102198.59
2023-04-02T22:07:30.873Z,102203.84
2023-04-02T22:10:15.784Z,102206.63
2023-04-02T22:13:01.007Z,102213.06
2023-04-02T22:15:45.873Z,102216.19
2023-04-02T22:18:31.100Z,102213.72
2023-04-02T22:21:16.965Z,102208.63
2023-04-02T22:24:03.851Z,102223.03
2023-04-02T22:26:49.009Z,102225.63
2023-04-02T22:29:34.106Z,102229.72
2023-04-02T22:32:18.858Z,102227.38
2023-04-02T22:35:03.824Z,102232.97
2023-04-02T22:37:48.609Z,102236.56
2023-04-02T22:40:33.542Z,102240.41
2023-04-02T22:43:18.431Z,102236.47
2023-04-02T22:46:05.008Z,102241.41
2023-04-02T22:48:50.605Z,102235.31
2023-04-02T22:51:36.124Z,102248.06
2023-04-02T22:54:21.334Z,102245.63
2023-04-02T22:57:06.608Z,102249.25
2023-04-02T22:59:51.595Z,102252.03
2023-04-02T23:02:36.935Z,102245.28
2023-04-02T23:05:22.192Z,102252.84
2023-04-02T23:08:07.024Z,102243.78
2023-04-02T23:10:51.850Z,102254.28
2023-04-02T23:13:37.663Z,102246.41
2023-04-02T23:16:24.197Z,102250.56
2023-04-02T23:19:09.118Z,102248.19
2023-04-02T23:21:53.998Z,102256.75
2023-04-02T23:24:38.813Z,102256.25
2023-04-02T23:27:24.003Z,102254.63
2023-04-02T23:30:09.723Z,102260.91
2023-04-02T23:32:54.980Z,102261.41
2023-04-02T23:35:39.747Z,102261.84
2023-04-02T23:38:25.680Z,102270.31
2023-04-02T23:41:14.435Z,102273.19
2023-04-02T23:43:59.857Z,102268.19
2023-04-02T23:46:44.805Z,102268.44
2023-04-02T23:49:29.799Z,102258.78
2023-04-02T23:52:15.325Z,102258.78
2023-04-02T23:55:00.193Z,102262.34
2023-04-02T23:57:45.248Z,102265.06
